sensor_id;sensor_type;location;lat;lon;timestamp;pressure;altitude;pressure_sealevel;temperature
71630;BMP280;59479;51.902;8.212;2022-08-19T00:01:51;100704.06;;;23.12
71630;BMP280;59479;51.902;8.212;2022-08-19T00:04:20;100717.88;;;23.09
71630;BMP280;59479;51.902;8.212;2022-08-19T00:06:47;100722.41;;;23.04
71630;BMP280;59479;51.902;8.212;2022-08-19T00:09:14;100723.53;;;22.99
71630;BMP280;59479;51.902;8.212;2022-08-19T00:11:40;100725.63;;;22.91
71630;BMP280;59479;51.902;8.212;2022-08-19T00:14:07;100725.13;;;22.83
71630;BMP280;59479;51.902;8.212;2022-08-19T00:16:33;100717.38;;;22.84
71630;BMP280;59479;51.902;8.212;2022-08-19T00:18:59;100722.63;;;22.81
71630;BMP280;59479;51.902;8.212;2022-08-19T00:21:25;100728.91;;;22.76
71630;BMP280;59479;51.902;8.212;2022-08-19T00:23:52;100736.78;;;22.72
71630;BMP280;59479;51.902;8.212;2022-08-19T00:26:18;100733.53;;;22.68
71630;BMP280;59479;51.902;8.212;2022-08-19T00:28:43;100728.63;;;22.64
71630;BMP280;59479;51.902;8.212;2022-08-19T00:31:09;100725.25;;;22.63
71630;BMP280;59479;51.902;8.212;2022-08-19T00:33:34;100728.41;;;22.68
71630;BMP280;59479;51.902;8.212;2022-08-19T00:36:02;100723.97;;;22.72
71630;BMP280;59479;51.902;8.212;2022-08-19T00:38:29;100722.41;;;22.69
71630;BMP280;59479;51.902;8.212;2022-08-19T00:40:55;100717.34;;;22.68
71630;BMP280;59479;51.902;8.212;2022-08-19T00:43:23;100717.56;;;22.63
71630;BMP280;59479;51.902;8.212;2022-08-19T00:45:49;100715.00;;;22.63
71630;BMP280;59479;51.902;8.212;2022-08-19T00:48:17;100713.34;;;22.62
71630;BMP280;59479;51.902;8.212;2022-08-19T00:50:43;100705.19;;;22.54
71630;BMP280;59479;51.902;8.212;2022-08-19T00:53:11;100709.72;;;22.49
71630;BMP280;59479;51.902;8.212;2022-08-19T00:55:37;100704.66;;;22.48
71630;BMP280;59479;51.902;8.212;2022-08-19T00:58:08;100710.66;;;22.47
71630;BMP280;59479;51.902;8.212;2022-08-19T01:00:34;100706.66;;;22.41
71630;BMP280;59479;51.902;8.212;2022-08-19T01:03:07;100710.97;;;22.41
71630;BMP280;59479;51.902;8.212;2022-08-19T01:05:33;100710.28;;;22.37
71630;BMP280;59479;51.902;8.212;2022-08-19T01:08:01;100709.53;;;22.36
71630;BMP280;59479;51.902;8.212;2022-08-19T01:10:29;100702.88;;;22.32
71630;BMP280;59479;51.902;8.212;2022-08-19T01:12:58;100712.56;;;22.25
71630;BMP280;59479;51.902;8.212;2022-08-19T01:15:29;100710.16;;;22.22
71630;BMP280;59479;51.902;8.212;2022-08-19T01:17:55;100712.34;;;22.11
71630;BMP280;59479;51.902;8.212;2022-08-19T01:20:23;100707.41;;;22.07
71630;BMP280;59479;51.902;8.212;2022-08-19T01:22:52;100706.84;;;22.00
71630;BMP280;59479;51.902;8.212;2022-08-19T01:25:20;100703.28;;;22.04
71630;BMP280;59479;51.902;8.212;2022-08-19T01:27:49;100708.66;;;21.98
71630;BMP280;59479;51.902;8.212;2022-08-19T01:30:18;100705.75;;;21.88
71630;BMP280;59479;51.902;8.212;2022-08-19T01:32:44;100704.78;;;21.90
71630;BMP280;59479;51.902;8.212;2022-08-19T01:35:11;100707.81;;;21.80
71630;BMP280;59479;51.902;8.212;2022-08-19T01:37:50;100696.06;;;21.76
71630;BMP280;59479;51.902;8.212;2022-08-19T01:40:17;100696.06;;;21.76
71630;BMP280;59479;51.902;8.212;2022-08-19T01:42:45;100688.25;;;21.79
71630;BMP280;59479;51.902;8.212;2022-08-19T01:45:10;100684.88;;;21.78
71630;BMP280;59479;51.902;8.212;2022-08-19T01:47:36;100681.13;;;21.67
71630;BMP280;59479;51.902;8.212;2022-08-19T01:50:04;100678.91;;;21.59
71630;BMP280;59479;51.902;8.212;2022-08-19T01:52:29;100672.97;;;21.59
71630;BMP280;59479;51.902;8.212;2022-08-19T01:54:55;100666.00;;;21.62
71630;BMP280;59479;51.902;8.212;2022-08-19T01:57:20;100659.84;;;21.66
71630;BMP280;59479;51.902;8.212;2022-08-19T01:59:46;100657.97;;;21.70
71630;BMP280;59479;51.902;8.212;2022-08-19T02:02:11;100663.28;;;21.65
71630;BMP280;59479;51.902;8.212;2022-08-19T02:04:37;100664.94;;;21.66
71630;BMP280;59479;51.902;8.212;2022-08-19T02:07:03;100663.16;;;21.68
71630;BMP280;59479;51.902;8.212;2022-08-19T02:09:30;100671.09;;;21.62
71630;BMP280;59479;51.902;8.212;2022-08-19T02:11:56;100669.91;;;21.51
71630;BMP280;59479;51.902;8.212;2022-08-19T02:14:21;100668.59;;;21.41
71630;BMP280;59479;51.902;8.212;2022-08-19T02:16:46;100667.22;;;21.34
71630;BMP280;59479;51.902;8.212;2022-08-19T02:19:12;100657.00;;;21.34
71630;BMP280;59479;51.902;8.212;2022-08-19T02:21:38;100657.00;;;21.34
71630;BMP280;59479;51.902;8.212;2022-08-19T02:24:03;100660.63;;;21.29
71630;BMP280;59479;51.902;8.212;2022-08-19T02:26:29;100668.22;;;21.30
71630;BMP280;59479;51.902;8.212;2022-08-19T02:28:55;100667.47;;;21.28
71630;BMP280;59479;51.902;8.212;2022-08-19T02:31:23;100669.00;;;21.32
71630;BMP280;59479;51.902;8.212;2022-08-19T02:33:48;100672.59;;;21.28
71630;BMP280;59479;51.902;8.212;2022-08-19T02:36:15;100668.38;;;21.27
71630;BMP280;59479;51.902;8.212;2022-08-19T02:38:41;100673.09;;;21.16
71630;BMP280;59479;51.902;8.212;2022-08-19T02:41:12;100670.66;;;21.13
71630;BMP280;59479;51.902;8.212;2022-08-19T02:43:38;100663.00;;;21.13
71630;BMP280;59479;51.902;8.212;2022-08-19T02:48:46;100658.59;;;21.17
71630;BMP280;59479;51.902;8.212;2022-08-19T02:51:19;100664.41;;;21.20
71630;BMP280;59479;51.902;8.212;2022-08-19T02:53:45;100661.19;;;21.15
71630;BMP280;59479;51.902;8.212;2022-08-19T02:56:11;100666.47;;;21.12
71630;BMP280;59479;51.902;8.212;2022-08-19T02:58:36;100667.75;;;21.03
71630;BMP280;59479;51.902;8.212;2022-08-19T03:01:01;100672.09;;;21.01
71630;BMP280;59479;51.902;8.212;2022-08-19T03:03:27;100675.78;;;20.94
71630;BMP280;59479;51.902;8.212;2022-08-19T03:06:04;100676.75;;;20.91
71630;BMP280;59479;51.902;8.212;2022-08-19T03:08:29;100680.75;;;20.97
71630;BMP280;59479;51.902;8.212;2022-08-19T03:10:55;100679.25;;;20.93
71630;BMP280;59479;51.902;8.212;2022-08-19T03:13:20;100682.88;;;20.87
71630;BMP280;59479;51.902;8.212;2022-08-19T03:15:47;100687.13;;;20.87
71630;BMP280;59479;51.902;8.212;2022-08-19T03:18:14;100685.69;;;20.81
71630;BMP280;59479;51.902;8.212;2022-08-19T03:20:44;100674.97;;;20.72
71630;BMP280;59479;51.902;8.212;2022-08-19T03:23:11;100686.88;;;20.73
71630;BMP280;59479;51.902;8.212;2022-08-19T03:25:42;100688.59;;;20.72
71630;BMP280;59479;51.902;8.212;2022-08-19T03:28:09;100697.03;;;20.74
71630;BMP280;59479;51.902;8.212;2022-08-19T03:30:34;100690.19;;;20.75
71630;BMP280;59479;51.902;8.212;2022-08-19T03:33:00;100694.38;;;20.77
71630;BMP280;59479;51.902;8.212;2022-08-19T03:35:25;100688.47;;;20.75
71630;BMP280;59479;51.902;8.212;2022-08-19T03:37:51;100693.50;;;20.77
71630;BMP280;59479;51.902;8.212;2022-08-19T03:40:17;100688.66;;;20.71
71630;BMP280;59479;51.902;8.212;2022-08-19T03:42:44;100698.03;;;20.70
71630;BMP280;59479;51.902;8.212;2022-08-19T03:45:09;100688.00;;;20.66
71630;BMP280;59479;51.902;8.212;2022-08-19T03:47:35;100687.81;;;20.70
71630;BMP280;59479;51.902;8.212;2022-08-19T03:50:02;100701.66;;;20.65
71630;BMP280;59479;51.902;8.212;2022-08-19T03:52:28;100711.19;;;20.60
71630;BMP280;59479;51.902;8.212;2022-08-19T03:54:53;100700.59;;;20.49
71630;BMP280;59479;51.902;8.212;2022-08-19T03:57:19;100710.16;;;20.44
71630;BMP280;59479;51.902;8.212;2022-08-19T03:59:44;100705.91;;;20.43
71630;BMP280;59479;51.902;8.212;2022-08-19T04:02:11;100706.16;;;20.37
71630;BMP280;59479;51.902;8.212;2022-08-19T04:04:38;100718.78;;;20.40
71630;BMP280;59479;51.902;8.212;2022-08-19T04:07:04;100716.06;;;20.45
71630;BMP280;59479;51.902;8.212;2022-08-19T04:09:30;100723.69;;;20.46
71630;BMP280;59479;51.902;8.212;2022-08-19T04:11:56;100717.00;;;20.42
71630;BMP280;59479;51.902;8.212;2022-08-19T04:14:27;100729.91;;;20.39
71630;BMP280;59479;51.902;8.212;2022-08-19T04:16:55;100724.88;;;20.38
71630;BMP280;59479;51.902;8.212;2022-08-19T04:19:21;100717.19;;;20.38
71630;BMP280;59479;51.902;8.212;2022-08-19T04:21:50;100724.88;;;20.38
71630;BMP280;59479;51.902;8.212;2022-08-19T04:24:17;100724.03;;;20.37
71630;BMP280;59479;51.902;8.212;2022-08-19T04:26:43;100716.72;;;20.28
71630;BMP280;59479;51.902;8.212;2022-08-19T04:29:12;100714.97;;;20.29
71630;BMP280;59479;51.902;8.212;2022-08-19T04:31:39;100712.31;;;20.32
71630;BMP280;59479;51.902;8.212;2022-08-19T04:34:08;100704.50;;;20.36
71630;BMP280;59479;51.902;8.212;2022-08-19T04:36:37;100722.88;;;20.23
71630;BMP280;59479;51.902;8.212;2022-08-19T04:39:10;100712.72;;;20.22
71630;BMP280;59479;51.902;8.212;2022-08-19T04:41:35;100728.16;;;20.19
71630;BMP280;59479;51.902;8.212;2022-08-19T04:44:19;100717.13;;;20.18
71630;BMP280;59479;51.902;8.212;2022-08-19T04:46:46;100714.63;;;20.17
71630;BMP280;59479;51.902;8.212;2022-08-19T04:49:13;100719.63;;;20.20
71630;BMP280;59479;51.902;8.212;2022-08-19T04:51:40;100715.28;;;20.22
71630;BMP280;59479;51.902;8.212;2022-08-19T04:54:07;100720.44;;;20.20
71630;BMP280;59479;51.902;8.212;2022-08-19T04:56:32;100722.13;;;20.21
71630;BMP280;59479;51.902;8.212;2022-08-19T04:58:58;100726.16;;;20.26
71630;BMP280;59479;51.902;8.212;2022-08-19T05:01:28;100726.09;;;20.28
71630;BMP280;59479;51.902;8.212;2022-08-19T05:03:55;100725.94;;;20.32
71630;BMP280;59479;51.902;8.212;2022-08-19T05:06:22;100731.81;;;20.34
71630;BMP280;59479;51.902;8.212;2022-08-19T05:08:48;100719.03;;;20.34
71630;BMP280;59479;51.902;8.212;2022-08-19T05:11:16;100731.69;;;20.37
71630;BMP280;59479;51.902;8.212;2022-08-19T05:13:43;100733.19;;;20.43
71630;BMP280;59479;51.902;8.212;2022-08-19T05:16:10;100727.16;;;20.44
71630;BMP280;59479;51.902;8.212;2022-08-19T05:18:36;100727.97;;;20.46
71630;BMP280;59479;51.902;8.212;2022-08-19T05:21:21;100723.63;;;20.48
71630;BMP280;59479;51.902;8.212;2022-08-19T05:24:05;100731.28;;;20.48
71630;BMP280;59479;51.902;8.212;2022-08-19T05:26:35;100727.75;;;20.50
71630;BMP280;59479;51.902;8.212;2022-08-19T05:29:01;100729.38;;;20.53
71630;BMP280;59479;51.902;8.212;2022-08-19T05:31:26;100726.78;;;20.54
71630;BMP280;59479;51.902;8.212;2022-08-19T05:33:51;100730.09;;;20.56
71630;BMP280;59479;51.902;8.212;2022-08-19T05:36:17;100735.09;;;20.59
71630;BMP280;59479;51.902;8.212;2022-08-19T05:38:44;100730.75;;;20.61
71630;BMP280;59479;51.902;8.212;2022-08-19T05:41:12;100732.41;;;20.62
71630;BMP280;59479;51.902;8.212;2022-08-19T05:43:38;100729.00;;;20.62
71630;BMP280;59479;51.902;8.212;2022-08-19T05:46:06;100726.41;;;20.63
71630;BMP280;59479;51.902;8.212;2022-08-19T05:48:33;100721.34;;;20.62
71630;BMP280;59479;51.902;8.212;2022-08-19T05:51:06;100728.31;;;20.58
71630;BMP280;59479;51.902;8.212;2022-08-19T05:53:32;100723.13;;;20.60
71630;BMP280;59479;51.902;8.212;2022-08-19T05:56:03;100717.06;;;20.62
71630;BMP280;59479;51.902;8.212;2022-08-19T05:58:29;100714.50;;;20.62
71630;BMP280;59479;51.902;8.212;2022-08-19T06:00:54;100709.41;;;20.62
71630;BMP280;59479;51.902;8.212;2022-08-19T06:03:19;100712.38;;;20.52
71630;BMP280;59479;51.902;8.212;2022-08-19T06:05:45;100718.47;;;20.49
71630;BMP280;59479;51.902;8.212;2022-08-19T06:08:10;100711.13;;;20.40
71630;BMP280;59479;51.902;8.212;2022-08-19T06:10:36;100708.53;;;20.42
71630;BMP280;59479;51.902;8.212;2022-08-19T06:13:01;100706.56;;;20.48
71630;BMP280;59479;51.902;8.212;2022-08-19T06:15:27;100703.13;;;20.49
71630;BMP280;59479;51.902;8.212;2022-08-19T06:17:53;100707.16;;;20.55
71630;BMP280;59479;51.902;8.212;2022-08-19T06:20:18;100700.97;;;20.60
71630;BMP280;59479;51.902;8.212;2022-08-19T06:22:46;100694.09;;;20.62
71630;BMP280;59479;51.902;8.212;2022-08-19T06:25:13;100694.09;;;20.62
71630;BMP280;59479;51.902;8.212;2022-08-19T06:27:40;100694.94;;;20.63
71630;BMP280;59479;51.902;8.212;2022-08-19T06:30:06;100702.44;;;20.67
71630;BMP280;59479;51.902;8.212;2022-08-19T06:32:35;100697.22;;;20.70
71630;BMP280;59479;51.902;8.212;2022-08-19T06:35:00;100708.91;;;20.75
71630;BMP280;59479;51.902;8.212;2022-08-19T06:37:30;100702.72;;;20.81
71630;BMP280;59479;51.902;8.212;2022-08-19T06:39:56;100705.13;;;20.84
71630;BMP280;59479;51.902;8.212;2022-08-19T06:42:21;100709.19;;;20.89
71630;BMP280;59479;51.902;8.212;2022-08-19T06:44:47;100703.00;;;20.95
71630;BMP280;59479;51.902;8.212;2022-08-19T06:47:17;100704.53;;;20.99
71630;BMP280;59479;51.902;8.212;2022-08-19T06:49:43;100708.56;;;21.04
71630;BMP280;59479;51.902;8.212;2022-08-19T06:52:09;100705.81;;;21.08
71630;BMP280;59479;51.902;8.212;2022-08-19T06:54:37;100710.69;;;21.14
71630;BMP280;59479;51.902;8.212;2022-08-19T06:57:03;100719.81;;;21.20
71630;BMP280;59479;51.902;8.212;2022-08-19T06:59:30;100721.22;;;21.27
71630;BMP280;59479;51.902;8.212;2022-08-19T07:01:59;100719.19;;;21.35
71630;BMP280;59479;51.902;8.212;2022-08-19T07:04:29;100726.66;;;21.39
71630;BMP280;59479;51.902;8.212;2022-08-19T07:07:04;100732.28;;;21.47
71630;BMP280;59479;51.902;8.212;2022-08-19T07:09:32;100735.69;;;21.48
71630;BMP280;59479;51.902;8.212;2022-08-19T07:11:57;100730.19;;;21.56
71630;BMP280;59479;51.902;8.212;2022-08-19T07:14:25;100737.56;;;21.64
71630;BMP280;59479;51.902;8.212;2022-08-19T07:16:52;100732.09;;;21.71
71630;BMP280;59479;51.902;8.212;2022-08-19T07:19:19;100730.16;;;21.76
71630;BMP280;59479;51.902;8.212;2022-08-19T07:21:47;100720.50;;;21.83
71630;BMP280;59479;51.902;8.212;2022-08-19T07:24:12;100727.00;;;21.90
71630;BMP280;59479;51.902;8.212;2022-08-19T07:26:40;100729.13;;;21.98
71630;BMP280;59479;51.902;8.212;2022-08-19T07:29:06;100731.38;;;22.06
71630;BMP280;59479;51.902;8.212;2022-08-19T07:31:32;100734.63;;;22.09
71630;BMP280;59479;51.902;8.212;2022-08-19T07:34:06;100742.00;;;22.15
71630;BMP280;59479;51.902;8.212;2022-08-19T07:36:33;100742.72;;;22.19
71630;BMP280;59479;51.902;8.212;2022-08-19T07:39:02;100746.75;;;22.24
71630;BMP280;59479;51.902;8.212;2022-08-19T07:41:29;100748.22;;;22.30
71630;BMP280;59479;51.902;8.212;2022-08-19T07:43:56;100755.53;;;22.37
71630;BMP280;59479;51.902;8.212;2022-08-19T07:46:21;100764.44;;;22.47
71630;BMP280;59479;51.902;8.212;2022-08-19T07:48:48;100753.81;;;22.56
71630;BMP280;59479;51.902;8.212;2022-08-19T07:51:17;100755.72;;;22.69
71630;BMP280;59479;51.902;8.212;2022-08-19T07:53:42;100747.50;;;22.79
71630;BMP280;59479;51.902;8.212;2022-08-19T07:56:10;100755.69;;;22.87
71630;BMP280;59479;51.902;8.212;2022-08-19T07:58:39;100760.59;;;22.92
71630;BMP280;59479;51.902;8.212;2022-08-19T08:01:06;100755.94;;;23.00
71630;BMP280;59479;51.902;8.212;2022-08-19T08:03:32;100766.88;;;23.03
71630;BMP280;59479;51.902;8.212;2022-08-19T08:06:16;100758.97;;;23.08
71630;BMP280;59479;51.902;8.212;2022-08-19T08:09:00;100762.81;;;23.16
71630;BMP280;59479;51.902;8.212;2022-08-19T08:11:49;100771.94;;;23.21
71630;BMP280;59479;51.902;8.212;2022-08-19T08:14:24;100772.94;;;23.19
71630;BMP280;59479;51.902;8.212;2022-08-19T08:16:50;100768.09;;;23.13
71630;BMP280;59479;51.902;8.212;2022-08-19T08:19:19;100765.16;;;23.21
71630;BMP280;59479;51.902;8.212;2022-08-19T08:21:45;100762.59;;;23.37
71630;BMP280;59479;51.902;8.212;2022-08-19T08:24:11;100770.38;;;23.36
71630;BMP280;59479;51.902;8.212;2022-08-19T08:26:37;100771.25;;;23.35
71630;BMP280;59479;51.902;8.212;2022-08-19T08:29:02;100776.03;;;23.42
71630;BMP280;59479;51.902;8.212;2022-08-19T08:31:28;100768.44;;;23.56
71630;BMP280;59479;51.902;8.212;2022-08-19T08:33:53;100762.50;;;23.72
71630;BMP280;59479;51.902;8.212;2022-08-19T08:36:19;100767.78;;;23.69
71630;BMP280;59479;51.902;8.212;2022-08-19T08:38:45;100766.84;;;23.87
71630;BMP280;59479;51.902;8.212;2022-08-19T08:44:22;100771.66;;;23.93
71630;BMP280;59479;51.902;8.212;2022-08-19T08:46:51;100778.22;;;23.99
71630;BMP280;59479;51.902;8.212;2022-08-19T08:49:40;100783.09;;;24.03
71630;BMP280;59479;51.902;8.212;2022-08-19T08:52:11;100778.41;;;24.11
71630;BMP280;59479;51.902;8.212;2022-08-19T08:54:41;100769.47;;;24.18
71630;BMP280;59479;51.902;8.212;2022-08-19T08:57:12;100778.63;;;24.06
71630;BMP280;59479;51.902;8.212;2022-08-19T08:59:40;100772.63;;;24.23
71630;BMP280;59479;51.902;8.212;2022-08-19T09:02:06;100768.47;;;24.20
71630;BMP280;59479;51.902;8.212;2022-08-19T09:04:34;100767.78;;;24.34
71630;BMP280;59479;51.902;8.212;2022-08-19T09:09:45;100775.31;;;24.37
71630;BMP280;59479;51.902;8.212;2022-08-19T09:15:09;100782.19;;;24.51
71630;BMP280;59479;51.902;8.212;2022-08-19T09:17:35;100778.28;;;24.60
71630;BMP280;59479;51.902;8.212;2022-08-19T09:22:40;100782.44;;;24.62
71630;BMP280;59479;51.902;8.212;2022-08-19T09:25:08;100790.81;;;24.66
71630;BMP280;59479;51.902;8.212;2022-08-19T09:27:35;100790.16;;;24.62
71630;BMP280;59479;51.902;8.212;2022-08-19T09:30:03;100777.81;;;24.69
71630;BMP280;59479;51.902;8.212;2022-08-19T09:32:29;100775.53;;;24.78
71630;BMP280;59479;51.902;8.212;2022-08-19T09:34:55;100770.81;;;24.86
71630;BMP280;59479;51.902;8.212;2022-08-19T09:37:23;100772.03;;;24.94
71630;BMP280;59479;51.902;8.212;2022-08-19T09:39:49;100767.81;;;24.93
71630;BMP280;59479;51.902;8.212;2022-08-19T09:42:14;100765.50;;;24.89
71630;BMP280;59479;51.902;8.212;2022-08-19T09:44:41;100775.69;;;25.06
71630;BMP280;59479;51.902;8.212;2022-08-19T09:47:07;100773.44;;;25.15
71630;BMP280;59479;51.902;8.212;2022-08-19T09:49:33;100771.31;;;25.22
71630;BMP280;59479;51.902;8.212;2022-08-19T09:51:59;100774.84;;;25.34
71630;BMP280;59479;51.902;8.212;2022-08-19T09:54:25;100782.59;;;25.48
71630;BMP280;59479;51.902;8.212;2022-08-19T09:56:51;100770.97;;;25.57
71630;BMP280;59479;51.902;8.212;2022-08-19T09:59:16;100781.72;;;25.63
71630;BMP280;59479;51.902;8.212;2022-08-19T10:01:42;100769.72;;;25.64
71630;BMP280;59479;51.902;8.212;2022-08-19T10:04:07;100776.63;;;25.77
71630;BMP280;59479;51.902;8.212;2022-08-19T10:06:37;100768.31;;;25.86
71630;BMP280;59479;51.902;8.212;2022-08-19T10:09:07;100769.25;;;25.99
71630;BMP280;59479;51.902;8.212;2022-08-19T10:11:35;100754.91;;;26.09
71630;BMP280;59479;51.902;8.212;2022-08-19T10:14:03;100757.31;;;26.25
71630;BMP280;59479;51.902;8.212;2022-08-19T10:16:31;100756.47;;;26.25
71630;BMP280;59479;51.902;8.212;2022-08-19T10:18:57;100756.09;;;26.31
71630;BMP280;59479;51.902;8.212;2022-08-19T10:21:29;100749.81;;;26.35
71630;BMP280;59479;51.902;8.212;2022-08-19T10:23:57;100756.13;;;26.43
71630;BMP280;59479;51.902;8.212;2022-08-19T10:26:26;100754.88;;;26.36
71630;BMP280;59479;51.902;8.212;2022-08-19T10:28:52;100745.25;;;26.52
71630;BMP280;59479;51.902;8.212;2022-08-19T10:31:20;100750.38;;;26.66
71630;BMP280;59479;51.902;8.212;2022-08-19T10:33:47;100746.25;;;26.63
71630;BMP280;59479;51.902;8.212;2022-08-19T10:36:15;100739.31;;;26.64
71630;BMP280;59479;51.902;8.212;2022-08-19T10:38:43;100744.50;;;26.64
71630;BMP280;59479;51.902;8.212;2022-08-19T10:41:13;100742.44;;;26.69
71630;BMP280;59479;51.902;8.212;2022-08-19T10:43:39;100737.81;;;26.74
71630;BMP280;59479;51.902;8.212;2022-08-19T10:46:07;100742.63;;;26.66
71630;BMP280;59479;51.902;8.212;2022-08-19T10:48:33;100735.06;;;26.77
71630;BMP280;59479;51.902;8.212;2022-08-19T10:51:00;100735.59;;;26.82
71630;BMP280;59479;51.902;8.212;2022-08-19T10:53:44;100734.00;;;26.79
71630;BMP280;59479;51.902;8.212;2022-08-19T10:56:10;100731.53;;;26.78
71630;BMP280;59479;51.902;8.212;2022-08-19T10:58:53;100724.09;;;26.73
71630;BMP280;59479;51.902;8.212;2022-08-19T11:01:19;100728.63;;;26.70
71630;BMP280;59479;51.902;8.212;2022-08-19T11:03:45;100719.84;;;26.60
71630;BMP280;59479;51.902;8.212;2022-08-19T11:06:11;100722.59;;;26.57
71630;BMP280;59479;51.902;8.212;2022-08-19T11:08:37;100713.25;;;26.68
71630;BMP280;59479;51.902;8.212;2022-08-19T11:11:07;100723.16;;;26.88
71630;BMP280;59479;51.902;8.212;2022-08-19T11:13:36;100715.31;;;26.63
71630;BMP280;59479;51.902;8.212;2022-08-19T11:16:06;100715.94;;;26.67
71630;BMP280;59479;51.902;8.212;2022-08-19T11:18:34;100711.22;;;26.73
71630;BMP280;59479;51.902;8.212;2022-08-19T11:21:34;100711.22;;;26.73
71630;BMP280;59479;51.902;8.212;2022-08-19T11:24:05;100715.16;;;26.79
71630;BMP280;59479;51.902;8.212;2022-08-19T11:26:32;100709.22;;;26.64
71630;BMP280;59479;51.902;8.212;2022-08-19T11:28:59;100703.16;;;26.92
71630;BMP280;59479;51.902;8.212;2022-08-19T11:31:29;100701.72;;;27.12
71630;BMP280;59479;51.902;8.212;2022-08-19T11:33:59;100693.97;;;27.25
71630;BMP280;59479;51.902;8.212;2022-08-19T11:36:27;100698.13;;;27.27
71630;BMP280;59479;51.902;8.212;2022-08-19T11:38:52;100698.63;;;27.32
71630;BMP280;59479;51.902;8.212;2022-08-19T11:41:20;100693.25;;;27.23
71630;BMP280;59479;51.902;8.212;2022-08-19T11:43:46;100683.78;;;27.36
71630;BMP280;59479;51.902;8.212;2022-08-19T11:46:13;100686.16;;;27.51
71630;BMP280;59479;51.902;8.212;2022-08-19T11:48:39;100699.47;;;27.70
71630;BMP280;59479;51.902;8.212;2022-08-19T11:51:11;100696.66;;;27.85
71630;BMP280;59479;51.902;8.212;2022-08-19T11:53:36;100703.16;;;27.91
71630;BMP280;59479;51.902;8.212;2022-08-19T11:56:03;100703.56;;;27.85
71630;BMP280;59479;51.902;8.212;2022-08-19T11:58:28;100695.97;;;27.83
71630;BMP280;59479;51.902;8.212;2022-08-19T12:00:54;100702.97;;;27.81
71630;BMP280;59479;51.902;8.212;2022-08-19T12:03:20;100697.69;;;27.83
71630;BMP280;59479;51.902;8.212;2022-08-19T12:05:46;100694.09;;;27.73
71630;BMP280;59479;51.902;8.212;2022-08-19T12:08:11;100699.19;;;27.62
71630;BMP280;59479;51.902;8.212;2022-08-19T12:10:38;100701.56;;;27.65
71630;BMP280;59479;51.902;8.212;2022-08-19T12:13:04;100699.59;;;27.68
71630;BMP280;59479;51.902;8.212;2022-08-19T12:15:35;100693.38;;;27.71
71630;BMP280;59479;51.902;8.212;2022-08-19T12:18:01;100695.31;;;27.80
71630;BMP280;59479;51.902;8.212;2022-08-19T12:20:26;100694.59;;;27.78
71630;BMP280;59479;51.902;8.212;2022-08-19T12:22:51;100691.50;;;27.85
71630;BMP280;59479;51.902;8.212;2022-08-19T12:25:17;100685.44;;;27.74
71630;BMP280;59479;51.902;8.212;2022-08-19T12:27:42;100683.75;;;27.73
71630;BMP280;59479;51.902;8.212;2022-08-19T12:30:10;100674.16;;;27.75
71630;BMP280;59479;51.902;8.212;2022-08-19T12:32:37;100678.19;;;27.79
71630;BMP280;59479;51.902;8.212;2022-08-19T12:35:03;100677.53;;;27.88
71630;BMP280;59479;51.902;8.212;2022-08-19T12:37:28;100667.41;;;27.85
71630;BMP280;59479;51.902;8.212;2022-08-19T12:40:02;100663.34;;;27.93
71630;BMP280;59479;51.902;8.212;2022-08-19T12:42:28;100662.31;;;27.95
71630;BMP280;59479;51.902;8.212;2022-08-19T12:44:54;100655.28;;;27.97
71630;BMP280;59479;51.902;8.212;2022-08-19T12:47:20;100667.19;;;27.88
71630;BMP280;59479;51.902;8.212;2022-08-19T12:49:46;100653.84;;;28.06
71630;BMP280;59479;51.902;8.212;2022-08-19T12:52:12;100661.28;;;28.10
71630;BMP280;59479;51.902;8.212;2022-08-19T12:54:40;100655.16;;;28.11
71630;BMP280;59479;51.902;8.212;2022-08-19T12:57:07;100648.75;;;28.04
71630;BMP280;59479;51.902;8.212;2022-08-19T12:59:34;100661.63;;;27.93
71630;BMP280;59479;51.902;8.212;2022-08-19T13:02:01;100651.69;;;27.88
71630;BMP280;59479;51.902;8.212;2022-08-19T13:04:27;100641.47;;;27.98
71630;BMP280;59479;51.902;8.212;2022-08-19T13:06:52;100642.88;;;28.02
71630;BMP280;59479;51.902;8.212;2022-08-19T13:09:17;100643.09;;;27.99
71630;BMP280;59479;51.902;8.212;2022-08-19T13:11:42;100643.59;;;28.04
71630;BMP280;59479;51.902;8.212;2022-08-19T13:14:09;100643.19;;;28.10
71630;BMP280;59479;51.902;8.212;2022-08-19T13:16:36;100641.88;;;27.92
71630;BMP280;59479;51.902;8.212;2022-08-19T13:21:29;100636.94;;;28.25
71630;BMP280;59479;51.902;8.212;2022-08-19T13:23:55;100639.75;;;28.33
71630;BMP280;59479;51.902;8.212;2022-08-19T13:26:21;100639.56;;;28.36
71630;BMP280;59479;51.902;8.212;2022-08-19T13:28:46;100639.25;;;28.51
71630;BMP280;59479;51.902;8.212;2022-08-19T13:31:33;100634.56;;;28.69
71630;BMP280;59479;51.902;8.212;2022-08-19T13:34:19;100628.97;;;28.62
71630;BMP280;59479;51.902;8.212;2022-08-19T13:36:52;100624.38;;;28.55
71630;BMP280;59479;51.902;8.212;2022-08-19T13:39:18;100626.31;;;28.64
71630;BMP280;59479;51.902;8.212;2022-08-19T13:41:45;100632.63;;;28.60
71630;BMP280;59479;51.902;8.212;2022-08-19T13:44:13;100622.44;;;28.69
71630;BMP280;59479;51.902;8.212;2022-08-19T13:46:39;100622.28;;;28.60
71630;BMP280;59479;51.902;8.212;2022-08-19T13:49:04;100615.00;;;28.65
71630;BMP280;59479;51.902;8.212;2022-08-19T13:51:29;100622.13;;;28.61
71630;BMP280;59479;51.902;8.212;2022-08-19T13:53:55;100615.72;;;28.67
71630;BMP280;59479;51.902;8.212;2022-08-19T13:56:20;100624.97;;;28.58
71630;BMP280;59479;51.902;8.212;2022-08-19T13:58:46;100605.38;;;28.67
71630;BMP280;59479;51.902;8.212;2022-08-19T14:01:11;100616.94;;;28.84
71630;BMP280;59479;51.902;8.212;2022-08-19T14:03:37;100607.06;;;28.89
71630;BMP280;59479;51.902;8.212;2022-08-19T14:06:02;100603.88;;;28.86
71630;BMP280;59479;51.902;8.212;2022-08-19T14:08:28;100605.06;;;28.82
71630;BMP280;59479;51.902;8.212;2022-08-19T14:10:56;100601.56;;;28.94
71630;BMP280;59479;51.902;8.212;2022-08-19T14:13:23;100610.94;;;28.84
71630;BMP280;59479;51.902;8.212;2022-08-19T14:15:49;100605.78;;;28.61